Time;durP1;ratioP1;P1;durP2;ratioP2;P2;SDS_P1;SDS_P2;PMS_P1;PMS_P2;Temp;Humidity;BMP_temperature;BMP_pressure;BME280_temperature;BME280_humidity;BME280_pressure;Samples;Min_cycle;Max_cycle;Signal;HPM_P1;HPM_P2
2023/12/25 00:02:17;;;;;;;0.90;0.30;;;;;;;-1.17;87.43;97818.31;5039495;28;20080;-73
2023/12/25 00:04:44;;;;;;;2.05;0.20;;;;;;;-1.15;87.50;97811.44;5041207;28;20053;-73
2023/12/25 00:07:11;;;;;;;0.90;0.30;;;;;;;-1.12;87.64;97821.63;5042763;28;20080;-73
2023/12/25 00:09:38;;;;;;;1.48;0.20;;;;;;;-1.11;87.07;97818.19;5040046;28;20072;-73
2023/12/25 00:12:06;;;;;;;3.85;0.20;;;;;;;-1.12;86.71;97808.81;5039912;28;20083;-73
2023/12/25 00:14:35;;;;;;;0.80;0.30;;;;;;;-1.07;86.54;97812.09;5041880;28;20134;-73
2023/12/25 00:17:02;;;;;;;3.08;0.95;;;;;;;-1.06;87.02;97813.78;5040354;28;20133;-73
2023/12/25 00:19:29;;;;;;;0.50;0.20;;;;;;;-1.05;86.94;97818.06;5040575;28;20368;-73
2023/12/25 00:21:58;;;;;;;2.05;0.20;;;;;;;-1.02;86.86;97815.41;5042213;28;20045;-73
2023/12/25 00:24:25;;;;;;;0.85;0.30;;;;;;;-1.05;86.13;97806.06;5040250;28;20122;-74
2023/12/25 00:26:51;;;;;;;0.43;0.30;;;;;;;-1.02;86.04;97813.69;5041783;28;20068;-73
2023/12/25 00:29:18;;;;;;;0.55;0.30;;;;;;;-0.97;86.28;97818.72;5042329;28;20471;-73
2023/12/25 00:31:47;;;;;;;0.70;0.30;;;;;;;-0.95;86.01;97819.50;5047330;28;20475;-73
2023/12/25 00:34:15;;;;;;;0.50;0.20;;;;;;;-0.95;86.27;97819.50;5046663;28;20103;-73
2023/12/25 00:36:42;;;;;;;0.80;0.30;;;;;;;-0.92;86.29;97816.88;5042552;28;20171;-73
2023/12/25 00:39:09;;;;;;;1.75;0.20;;;;;;;-0.90;86.02;97814.28;5045387;28;20124;-73
2023/12/25 00:41:36;;;;;;;0.52;0.30;;;;;;;-0.89;86.72;97809.09;5047518;28;20067;-73
2023/12/25 00:44:02;;;;;;;0.75;0.40;;;;;;;-0.87;86.72;97814.19;5043193;28;20065;-73
2023/12/25 00:46:29;;;;;;;1.83;0.30;;;;;;;-0.87;85.81;97809.91;5044233;28;20080;-75
2023/12/25 00:48:58;;;;;;;1.13;0.50;;;;;;;-0.85;86.04;97810.72;5041576;28;20119;-73
2023/12/25 00:51:25;;;;;;;2.67;0.28;;;;;;;-0.84;86.70;97799.56;5046094;28;20088;-76
2023/12/25 00:53:52;;;;;;;0.35;0.20;;;;;;;-0.82;86.16;97807.25;5045926;28;20037;-76
2023/12/25 00:56:19;;;;;;;0.45;0.20;;;;;;;-0.81;86.64;97802.06;5042905;28;20087;-76
2023/12/25 00:58:46;;;;;;;1.15;0.30;;;;;;;-0.79;86.45;97807.16;5046764;28;20569;-76
2023/12/25 01:01:13;;;;;;;2.17;0.20;;;;;;;-0.78;85.93;97801.97;5044326;28;20072;-74
2023/12/25 01:03:40;;;;;;;1.10;0.20;;;;;;;-0.83;85.89;97796.13;5044290;28;20057;-75
2023/12/25 01:06:08;;;;;;;0.70;0.35;;;;;;;-0.75;86.59;97807.94;5046398;28;20042;-73
2023/12/25 01:08:35;;;;;;;0.63;0.43;;;;;;;-0.72;85.91;97810.41;5044498;28;20073;-74
2023/12/25 01:11:03;;;;;;;0.85;0.20;;;;;;;-0.75;85.80;97807.94;5043637;28;20076;-74
2023/12/25 01:13:32;;;;;;;2.10;0.17;;;;;;;-0.73;86.11;97819.84;5043216;28;20049;-74
2023/12/25 01:15:58;;;;;;;0.43;0.30;;;;;;;-0.69;86.49;97808.59;5045855;28;20416;-74
2023/12/25 01:18:25;;;;;;;2.67;0.38;;;;;;;-0.68;85.76;97802.59;5045432;28;20069;-75
2023/12/25 01:20:52;;;;;;;2.17;0.30;;;;;;;-0.66;86.03;97807.69;5040163;28;20084;-74
2023/12/25 01:23:21;;;;;;;1.35;0.20;;;;;;;-0.65;86.07;97802.53;5045694;28;20660;-74
2023/12/25 01:25:48;;;;;;;1.35;0.40;;;;;;;-0.65;85.75;97804.25;5041649;28;20049;-73
2023/12/25 01:28:14;;;;;;;2.05;0.30;;;;;;;-0.65;85.96;97791.41;5044591;28;20076;-74
2023/12/25 01:30:41;;;;;;;1.90;0.30;;;;;;;-0.62;85.88;97794.75;5046347;28;20080;-74
2023/12/25 01:33:08;;;;;;;6.93;0.45;;;;;;;-0.62;85.91;97791.34;5042966;28;20116;-74
2023/12/25 01:35:35;;;;;;;2.50;0.32;;;;;;;-0.59;86.30;97793.81;5041056;28;20098;-74
2023/12/25 01:38:03;;;;;;;1.02;0.30;;;;;;;-0.60;85.62;97803.25;5048073;28;20076;-73
2023/12/25 01:40:31;;;;;;;0.95;0.30;;;;;;;-0.60;86.42;97797.28;5038504;28;20055;-74
2023/12/25 01:42:58;;;;;;;1.67;0.30;;;;;;;-0.57;85.82;97804.91;5044245;28;20085;-74
2023/12/25 01:45:25;;;;;;;0.40;0.20;;;;;;;-0.61;85.79;97786.16;5042707;28;20135;-74
2023/12/25 01:47:52;;;;;;;1.13;0.30;;;;;;;-0.56;85.83;97794.59;5043670;28;20156;-74
2023/12/25 01:50:19;;;;;;;2.17;0.30;;;;;;;-0.55;85.72;97795.41;5043583;28;20661;-74
2023/12/25 01:52:49;;;;;;;3.42;0.73;;;;;;;-0.53;85.48;97796.22;5043372;28;20076;-74
2023/12/25 01:55:16;;;;;;;1.30;0.50;;;;;;;-0.52;86.01;97797.91;5041894;28;20049;-74
2023/12/25 01:57:45;;;;;;;0.60;0.20;;;;;;;-0.52;86.23;97797.91;5039191;28;20145;-74
2023/12/25 02:00:12;;;;;;;1.48;0.45;;;;;;;-0.51;85.81;97799.63;5046388;28;20600;-74
2023/12/25 02:02:39;;;;;;;1.83;0.25;;;;;;;-0.49;85.68;97802.13;5043870;28;20784;-74
2023/12/25 02:05:07;;;;;;;0.70;0.40;;;;;;;-0.48;85.90;97802.09;5047947;28;20076;-74
2023/12/25 02:07:35;;;;;;;2.53;0.30;;;;;;;-0.47;85.62;97808.06;5044191;28;20073;-74
2023/12/25 02:10:03;;;;;;;4.15;1.10;;;;;;;-0.46;85.77;97813.19;5042330;28;20617;-74
2023/12/25 02:12:29;;;;;;;0.70;0.28;;;;;;;-0.45;85.62;97804.59;5042419;28;20053;-73
2023/12/25 02:14:58;;;;;;;1.15;0.30;;;;;;;-0.44;86.11;97803.69;5040578;28;20491;-75
2023/12/25 02:17:25;;;;;;;1.45;0.20;;;;;;;-0.46;85.43;97807.19;5042683;28;20088;-74
2023/12/25 02:19:52;;;;;;;2.60;0.20;;;;;;;-0.42;85.87;97816.50;5041760;28;20482;-74
2023/12/25 02:22:20;;;;;;;0.30;0.17;;;;;;;-0.42;85.64;97812.22;5042507;28;20601;-74
2023/12/25 02:24:56;;;;;;;2.30;0.30;;;;;;;-0.40;85.55;97809.63;5036793;28;20570;-74
2023/12/25 02:27:25;;;;;;;1.27;0.20;;;;;;;-0.40;86.09;97805.31;5048337;28;20036;-74
2023/12/25 02:29:52;;;;;;;1.55;0.15;;;;;;;-0.39;85.39;97807.00;5043116;28;20519;-73
2023/12/25 02:32:19;;;;;;;0.75;0.20;;;;;;;-0.38;85.40;97807.84;5039014;28;20127;-73
2023/12/25 02:34:47;;;;;;;0.30;0.20;;;;;;;-0.38;85.71;97813.81;5040583;28;20079;-74
2023/12/25 02:37:14;;;;;;;0.20;0.13;;;;;;;-0.37;86.03;97806.97;5044815;28;20125;-74
2023/12/25 02:39:41;;;;;;;0.88;0.10;;;;;;;-0.35;85.34;97806.06;5042090;28;20132;-74
2023/12/25 02:42:08;;;;;;;0.90;0.20;;;;;;;-0.34;85.44;97809.44;5041466;28;20081;-74
2023/12/25 02:44:36;;;;;;;2.15;0.30;;;;;;;-0.34;85.90;97810.28;5041338;28;20590;-74
2023/12/25 02:47:03;;;;;;;0.93;0.15;;;;;;;-0.31;85.56;97811.09;5045749;28;20482;-75
2023/12/25 02:49:30;;;;;;;3.00;0.13;;;;;;;-0.30;85.63;97820.47;5042559;28;20645;-74
2023/12/25 02:51:57;;;;;;;2.47;0.22;;;;;;;-0.30;85.14;97816.19;5039061;28;20120;-74
2023/12/25 02:54:24;;;;;;;5.15;0.55;;;;;;;-0.29;85.12;97812.72;5041624;28;20049;-74
2023/12/25 02:56:51;;;;;;;2.53;0.20;;;;;;;-0.29;85.22;97802.44;5039955;28;20082;-74
2023/12/25 02:59:18;;;;;;;0.75;0.30;;;;;;;-0.28;85.31;97803.31;5044329;28;20131;-74
2023/12/25 03:01:46;;;;;;;0.40;0.30;;;;;;;-0.29;85.55;97797.31;5044330;28;20120;-74
2023/12/25 03:04:13;;;;;;;1.17;0.20;;;;;;;-0.29;85.14;97801.59;5040155;28;20687;-75
2023/12/25 03:06:40;;;;;;;1.80;0.98;;;;;;;-0.28;85.15;97808.44;5042941;28;20127;-74
2023/12/25 03:09:07;;;;;;;1.30;0.65;;;;;;;-0.28;85.27;97796.44;5042875;28;20064;-74
2023/12/25 03:11:34;;;;;;;1.48;0.30;;;;;;;-0.28;85.07;97804.16;5040057;28;20495;-74
2023/12/25 03:14:01;;;;;;;0.40;0.20;;;;;;;-0.32;85.74;97787.13;5040396;28;20103;-74
2023/12/25 03:16:28;;;;;;;1.73;0.38;;;;;;;-0.27;85.64;97794.72;5041710;28;20124;-74
2023/12/25 03:18:56;;;;;;;4.07;0.30;;;;;;;-0.27;85.65;97792.97;5040820;28;20131;-76
2023/12/25 03:21:23;;;;;;;0.75;0.30;;;;;;;-0.27;85.63;97800.69;5043152;28;20124;-77
2023/12/25 03:23:49;;;;;;;1.05;0.20;;;;;;;-0.27;85.51;97794.72;5048236;28;20076;-77
2023/12/25 03:26:16;;;;;;;2.33;0.50;;;;;;;-0.27;85.41;97795.53;5047994;28;20087;-77
2023/12/25 03:28:43;;;;;;;3.03;0.30;;;;;;;-0.26;85.54;97788.69;5045519;28;20081;-77
2023/12/25 03:31:10;;;;;;;1.13;0.20;;;;;;;-0.27;85.47;97790.41;5050441;28;20099;-76
2023/12/25 03:33:37;;;;;;;1.38;0.30;;;;;;;-0.26;85.88;97796.38;5046580;28;20167;-76
2023/12/25 03:36:06;;;;;;;1.55;0.40;;;;;;;-0.26;85.53;97793.81;5039727;28;20158;-77
2023/12/25 03:38:33;;;;;;;0.38;0.20;;;;;;;-0.26;85.76;97786.97;5048640;28;20051;-77
2023/12/25 03:41:00;;;;;;;0.68;0.22;;;;;;;-0.24;85.59;97789.50;5047530;28;20049;-77
2023/12/25 03:43:27;;;;;;;4.47;0.50;;;;;;;-0.26;85.65;97786.97;5051973;28;20422;-77
2023/12/25 03:45:54;;;;;;;0.40;0.30;;;;;;;-0.25;85.70;97791.22;5048860;28;20556;-77
2023/12/25 03:48:23;;;;;;;1.60;0.30;;;;;;;-0.23;85.84;97796.31;5049124;28;20079;-77
2023/12/25 03:50:50;;;;;;;0.40;0.20;;;;;;;-0.24;85.90;97800.59;5045342;28;20040;-76
2023/12/25 03:53:18;;;;;;;1.55;0.30;;;;;;;-0.22;86.24;97800.56;5045242;28;20146;-77
2023/12/25 03:55:45;;;;;;;1.20;0.20;;;;;;;-0.25;85.86;97803.22;5046182;28;20083;-77
2023/12/25 03:58:12;;;;;;;0.43;0.28;;;;;;;-0.21;86.39;97799.69;5040318;28;20503;-77
2023/12/25 04:00:39;;;;;;;0.47;0.30;;;;;;;-0.24;85.93;97790.31;5045732;28;20076;-76
2023/12/25 04:03:06;;;;;;;1.67;0.20;;;;;;;-0.21;85.67;97791.97;5044774;28;20118;-77
2023/12/25 04:05:33;;;;;;;1.33;0.20;;;;;;;-0.19;85.97;97787.63;5045052;28;20076;-76
2023/12/25 04:08:00;;;;;;;2.50;0.40;;;;;;;-0.19;85.48;97792.78;5047209;28;20077;-76
2023/12/25 04:10:29;;;;;;;0.45;0.20;;;;;;;-0.20;85.54;97793.69;5047347;28;20068;-76
2023/12/25 04:12:56;;;;;;;1.23;0.90;;;;;;;-0.18;86.04;97802.16;5050616;28;20084;-77
2023/12/25 04:15:22;;;;;;;0.30;0.20;;;;;;;-0.17;85.66;97801.31;5047029;28;20132;-77
2023/12/25 04:17:49;;;;;;;0.32;0.22;;;;;;;-0.19;85.99;97795.34;5048912;28;20080;-77
2023/12/25 04:20:16;;;;;;;0.70;0.30;;;;;;;-0.17;85.78;97785.88;5045610;28;20080;-74
2023/12/25 04:22:43;;;;;;;0.40;0.30;;;;;;;-0.17;85.67;97783.31;5041761;28;20079;-75
2023/12/25 04:25:10;;;;;;;2.60;0.32;;;;;;;-0.17;85.25;97791.03;5042517;28;20527;-74
2023/12/25 04:27:39;;;;;;;0.35;0.20;;;;;;;-0.17;86.32;97791.03;5042197;28;20128;-74
2023/12/25 04:30:07;;;;;;;0.45;0.20;;;;;;;-0.17;85.76;97791.03;5043517;28;20076;-77
2023/12/25 04:32:34;;;;;;;0.93;0.25;;;;;;;-0.15;85.83;97794.38;5046041;28;20076;-78
2023/12/25 04:35:01;;;;;;;2.35;1.25;;;;;;;-0.15;85.55;97795.25;5044716;28;20084;-77
2023/12/25 04:37:28;;;;;;;0.25;0.20;;;;;;;-0.15;86.28;97784.09;5048126;28;20083;-78
2023/12/25 04:39:55;;;;;;;0.47;0.20;;;;;;;-0.14;85.72;97793.50;5046835;28;20777;-76
2023/12/25 04:42:22;;;;;;;0.68;0.30;;;;;;;-0.13;85.85;97795.19;5047881;28;20095;-76
2023/12/25 04:44:50;;;;;;;1.65;0.20;;;;;;;-0.13;85.56;97796.00;5043140;28;20451;-76
2023/12/25 04:47:17;;;;;;;0.40;0.20;;;;;;;-0.17;85.83;97780.75;5039110;28;20077;-77
2023/12/25 04:49:44;;;;;;;0.55;0.30;;;;;;;-0.12;85.87;97786.56;5045073;28;20507;-76
2023/12/25 04:52:11;;;;;;;2.28;0.20;;;;;;;-0.12;85.66;97790.00;5045803;28;20103;-76
2023/12/25 04:54:38;;;;;;;0.20;0.20;;;;;;;-0.11;86.20;97803.69;5045605;28;20084;-76
2023/12/25 04:57:05;;;;;;;3.70;0.20;;;;;;;-0.10;85.67;97801.06;5043104;28;20065;-77
2023/12/25 04:59:32;;;;;;;0.45;0.20;;;;;;;-0.08;85.79;97793.34;5041430;28;20080;-76
2023/12/25 05:02:00;;;;;;;0.20;0.10;;;;;;;-0.08;86.12;97792.50;5046203;28;20068;-77
2023/12/25 05:04:28;;;;;;;0.82;0.20;;;;;;;-0.07;85.59;97792.44;5038620;28;20053;-77
2023/12/25 05:06:55;;;;;;;2.13;0.28;;;;;;;-0.06;85.95;97791.56;5048360;28;20056;-79
2023/12/25 05:09:22;;;;;;;0.20;0.10;;;;;;;-0.09;85.41;97783.91;5044660;28;20088;-77
2023/12/25 05:11:49;;;;;;;0.73;0.20;;;;;;;-0.05;85.94;97790.69;5047154;28;20478;-77
2023/12/25 05:14:16;;;;;;;0.73;0.30;;;;;;;-0.04;85.95;97794.91;5044562;28;20171;-77
2023/12/25 05:16:43;;;;;;;0.68;0.22;;;;;;;-0.03;85.70;97796.63;5044287;28;20107;-78
2023/12/25 05:19:12;;;;;;;0.90;0.30;;;;;;;-0.02;85.41;97792.31;5051918;28;20053;-77
2023/12/25 05:21:39;;;;;;;2.97;0.20;;;;;;;-0.01;85.82;97794.84;5049359;28;20136;-77
2023/12/25 05:24:07;;;;;;;0.32;0.20;;;;;;;-0.01;85.66;97792.25;5048469;28;20045;-77
2023/12/25 05:26:34;;;;;;;0.40;0.20;;;;;;;0.00;86.06;97791.41;5044819;28;20139;-77
2023/12/25 05:29:01;;;;;;;0.20;0.20;;;;;;;0.00;85.37;97788.81;5053044;28;20069;-77
2023/12/25 05:31:27;;;;;;;0.98;0.20;;;;;;;-0.05;85.54;97775.25;5053698;28;20084;-77
2023/12/25 05:33:54;;;;;;;0.45;0.20;;;;;;;0.02;85.34;97781.88;5059835;28;20076;-77
2023/12/25 05:36:23;;;;;;;0.73;0.20;;;;;;;0.00;85.74;97775.97;5049175;28;20132;-77
2023/12/25 05:38:50;;;;;;;0.32;0.20;;;;;;;0.06;85.66;97786.09;5050204;28;20072;-77
2023/12/25 05:41:17;;;;;;;0.38;0.20;;;;;;;0.07;85.61;97781.78;5047745;28;20080;-74
2023/12/25 05:43:44;;;;;;;0.63;0.20;;;;;;;0.07;85.74;97777.47;5045880;28;20076;-74
2023/12/25 05:46:11;;;;;;;0.65;0.10;;;;;;;0.09;85.54;97777.44;5047563;28;21408;-74
2023/12/25 05:48:38;;;;;;;3.38;0.20;;;;;;;0.10;85.27;97773.97;5045852;28;20076;-73
2023/12/25 05:51:05;;;;;;;0.90;0.30;;;;;;;0.07;85.16;97774.91;5040195;28;20120;-77
2023/12/25 05:53:33;;;;;;;0.30;0.17;;;;;;;0.08;85.38;97771.47;5045299;28;20080;-79
2023/12/25 05:56:01;;;;;;;0.15;0.10;;;;;;;0.06;84.93;97775.78;5050651;28;20044;-78
2023/12/25 05:58:28;;;;;;;0.57;0.17;;;;;;;0.05;84.93;97765.53;5052070;28;20454;-79
2023/12/25 06:00:54;;;;;;;0.20;0.15;;;;;;;0.08;84.98;97763.75;5054454;28;20049;-79
2023/12/25 06:03:21;;;;;;;0.20;0.10;;;;;;;0.10;85.38;97769.66;5052646;28;20543;-78
2023/12/25 06:05:48;;;;;;;2.25;0.20;;;;;;;0.10;85.26;97767.09;5053120;28;20076;-78
2023/12/25 06:08:15;;;;;;;0.30;0.13;;;;;;;0.08;84.90;97758.63;5049995;28;20080;-78
2023/12/25 06:10:44;;;;;;;3.50;0.20;;;;;;;0.11;85.19;97758.53;5048299;28;20076;-78
2023/12/25 06:13:11;;;;;;;0.35;0.10;;;;;;;0.12;84.62;97762.75;5052781;28;20045;-78
2023/12/25 06:15:38;;;;;;;2.17;0.20;;;;;;;0.12;84.75;97749.06;5052074;28;20083;-78
2023/12/25 06:18:05;;;;;;;4.88;0.30;;;;;;;0.12;85.08;97746.50;5051500;28;20084;-78
2023/12/25 06:20:32;;;;;;;0.20;0.20;;;;;;;0.13;85.21;97753.31;5052495;28;20049;-78
2023/12/25 06:22:59;;;;;;;0.10;0.10;;;;;;;0.05;84.85;97739.84;5052159;28;20076;-78
2023/12/25 06:25:26;;;;;;;0.50;0.20;;;;;;;0.13;84.45;97754.16;5053830;28;20102;-78
2023/12/25 06:27:55;;;;;;;1.05;0.20;;;;;;;0.13;84.71;97749.00;5049270;28;20478;-78
2023/12/25 06:30:22;;;;;;;1.30;0.20;;;;;;;0.14;84.77;97755.03;5055837;28;20104;-78
2023/12/25 06:32:49;;;;;;;0.10;0.10;;;;;;;0.13;84.70;97756.72;5044985;28;20447;-78
2023/12/25 06:35:16;;;;;;;0.10;0.10;;;;;;;0.13;84.04;97759.28;5057325;28;20044;-79
2023/12/25 06:37:42;;;;;;;0.38;0.20;;;;;;;0.13;84.13;97751.59;5038521;28;20154;-78
2023/12/25 06:40:10;;;;;;;1.23;0.20;;;;;;;0.07;83.99;97749.19;5046516;28;20124;-78
2023/12/25 06:42:37;;;;;;;0.25;0.15;;;;;;;0.13;84.37;97754.16;5046567;28;20084;-78
2023/12/25 06:45:07;;;;;;;0.60;0.20;;;;;;;0.12;83.72;97761.94;5050906;28;20122;-78
2023/12/25 06:47:35;;;;;;;0.50;0.10;;;;;;;0.11;83.68;97761.09;5049688;28;20533;-79
2023/12/25 06:50:02;;;;;;;0.40;0.20;;;;;;;0.11;83.88;97750.81;5049333;28;20041;-74
2023/12/25 06:52:30;;;;;;;0.28;0.20;;;;;;;0.10;84.18;97761.97;5042288;28;20132;-74
2023/12/25 06:54:57;;;;;;;1.85;0.20;;;;;;;0.09;84.38;97755.13;5042935;28;20135;-74
2023/12/25 06:57:24;;;;;;;0.65;0.20;;;;;;;0.09;84.02;97762.84;5038651;28;20045;-75
2023/12/25 06:59:51;;;;;;;0.63;0.10;;;;;;;0.09;83.52;97760.28;4984399;28;20124;-75
2023/12/25 07:02:21;;;;;;;0.13;0.13;;;;;;;0.09;83.87;97765.44;5037938;28;20076;-75
2023/12/25 07:04:48;;;;;;;0.13;0.10;;;;;;;0.08;83.78;97766.31;5038347;28;20056;-76
2023/12/25 07:07:15;;;;;;;1.33;0.20;;;;;;;0.07;83.99;97767.19;5042454;28;20076;-76
2023/12/25 07:09:43;;;;;;;0.60;0.30;;;;;;;0.06;84.16;97768.09;5043833;28;20170;-75
2023/12/25 07:12:10;;;;;;;0.40;0.20;;;;;;;0.07;83.93;97774.06;5042601;28;20049;-76
2023/12/25 07:14:37;;;;;;;0.30;0.13;;;;;;;0.06;83.90;97773.22;5046204;28;20138;-75
2023/12/25 07:17:07;;;;;;;1.77;0.20;;;;;;;0.04;83.62;97769.84;5036954;28;20124;-77
2023/12/25 07:19:36;;;;;;;0.20;0.20;;;;;;;0.03;83.63;97763.03;5046423;28;20499;-77
2023/12/25 07:22:03;;;;;;;0.20;0.10;;;;;;;0.01;83.41;97767.38;5042365;28;20150;-76
2023/12/25 07:24:29;;;;;;;0.20;0.17;;;;;;;0.00;83.49;97773.41;5043744;28;20088;-76
2023/12/25 07:26:56;;;;;;;0.30;0.20;;;;;;;0.00;83.47;97781.13;5044317;28;20076;-74
2023/12/25 07:29:23;;;;;;;0.50;0.17;;;;;;;-0.02;83.25;97775.16;5040316;28;20128;-75
2023/12/25 07:31:50;;;;;;;0.20;0.13;;;;;;;-0.03;83.14;97781.19;5038955;28;20045;-73
2023/12/25 07:34:17;;;;;;;0.20;0.20;;;;;;;-0.03;83.26;97790.63;5037218;28;20136;-74
2023/12/25 07:36:46;;;;;;;1.52;0.20;;;;;;;-0.04;83.54;97794.91;5039525;28;20045;-74
2023/12/25 07:39:14;;;;;;;0.30;0.20;;;;;;;-0.05;83.55;97797.56;5040120;28;20517;-74
2023/12/25 07:41:42;;;;;;;0.50;0.20;;;;;;;-0.08;83.13;97795.91;5041197;28;20052;-74
2023/12/25 07:44:09;;;;;;;1.05;0.20;;;;;;;-0.10;83.12;97806.22;5042361;28;20045;-74
2023/12/25 07:46:36;;;;;;;0.45;0.28;;;;;;;-0.11;83.52;97812.25;5041040;28;20100;-76
2023/12/25 07:49:03;;;;;;;2.35;0.20;;;;;;;-0.12;83.51;97815.72;5041062;28;21179;-74
2023/12/25 07:51:30;;;;;;;0.25;0.10;;;;;;;-0.16;83.46;97806.38;5039432;28;20069;-74
2023/12/25 07:53:58;;;;;;;0.93;0.20;;;;;;;-0.12;83.56;97817.41;5040770;28;20120;-75
2023/12/25 07:56:25;;;;;;;1.52;0.20;;;;;;;-0.13;83.49;97823.44;5042794;28;20077;-74
2023/12/25 07:58:52;;;;;;;0.65;0.10;;;;;;;-0.13;83.51;97823.44;5041826;28;20531;-75
2023/12/25 08:01:22;;;;;;;0.30;0.20;;;;;;;-0.15;83.56;97828.66;5044823;28;20080;-77
2023/12/25 08:03:50;;;;;;;1.85;0.30;;;;;;;-0.14;83.84;97837.19;5039537;28;20045;-77
2023/12/25 08:06:17;;;;;;;2.40;0.47;;;;;;;-0.13;83.35;97836.28;5039722;28;20140;-77
2023/12/25 08:08:44;;;;;;;1.13;0.20;;;;;;;-0.13;83.23;97849.16;5047856;28;20084;-77
2023/12/25 08:11:15;;;;;;;1.50;0.30;;;;;;;-0.13;83.84;97856.84;5049748;28;20037;-77
2023/12/25 08:13:42;;;;;;;1.42;0.88;;;;;;;-0.13;83.65;97855.13;5048356;28;20045;-77
2023/12/25 08:16:09;;;;;;;0.95;0.35;;;;;;;-0.13;83.86;97854.28;5042529;28;20079;-77
2023/12/25 08:18:36;;;;;;;0.88;0.40;;;;;;;-0.13;83.56;97860.25;5049902;28;20080;-77
2023/12/25 08:21:04;;;;;;;0.80;0.40;;;;;;;-0.14;83.93;97863.72;5047518;28;20076;-77
2023/12/25 08:23:31;;;;;;;1.95;0.40;;;;;;;-0.16;83.30;97856.94;5048109;28;20086;-77
2023/12/25 08:25:58;;;;;;;0.40;0.30;;;;;;;-0.14;83.52;97865.47;5042673;28;20083;-77
2023/12/25 08:28:27;;;;;;;0.30;0.20;;;;;;;-0.13;83.35;97869.69;5042492;28;20077;-79
2023/12/25 08:30:54;;;;;;;0.20;0.20;;;;;;;-0.17;83.38;97873.25;5046224;28;20108;-76
2023/12/25 08:33:21;;;;;;;2.20;0.45;;;;;;;-0.13;83.25;97877.41;5046044;28;20474;-77
2023/12/25 08:35:48;;;;;;;1.98;0.40;;;;;;;-0.13;83.85;97885.13;5048580;28;20131;-76
2023/12/25 08:38:15;;;;;;;1.45;0.30;;;;;;;-0.13;83.29;97879.97;5044695;28;20077;-76
2023/12/25 08:40:42;;;;;;;0.70;0.30;;;;;;;-0.13;83.53;97890.25;5040117;28;20069;-77
2023/12/25 08:43:08;;;;;;;0.88;0.40;;;;;;;-0.13;83.00;97885.13;5045048;28;20068;-76
2023/12/25 08:45:37;;;;;;;1.27;0.60;;;;;;;-0.13;83.63;97896.25;5036361;28;20534;-76
2023/12/25 08:48:04;;;;;;;2.80;1.05;;;;;;;-0.12;82.99;97897.94;5041907;28;20132;-76
2023/12/25 08:50:31;;;;;;;5.50;1.85;;;;;;;-0.12;83.59;97897.06;5039806;28;20452;-75
2023/12/25 08:52:58;;;;;;;4.55;1.92;;;;;;;-0.12;83.56;97897.06;5046502;28;20072;-76
2023/12/25 08:55:25;;;;;;;2.10;0.40;;;;;;;-0.14;83.61;97898.88;5048340;28;20137;-75
2023/12/25 08:57:52;;;;;;;4.30;0.47;;;;;;;-0.12;83.68;97903.09;5048324;28;20503;-76
2023/12/25 09:00:20;;;;;;;12.25;2.88;;;;;;;-0.12;82.95;97907.34;5047535;28;20056;-76
2023/12/25 09:02:48;;;;;;;2.42;0.50;;;;;;;-0.11;83.29;97911.63;5047232;28;20132;-75
2023/12/25 09:05:15;;;;;;;1.10;0.40;;;;;;;-0.11;83.80;97904.75;5044811;28;20044;-76
2023/12/25 09:07:42;;;;;;;2.30;0.43;;;;;;;-0.11;83.18;97902.19;5046316;28;20133;-76
2023/12/25 09:10:10;;;;;;;3.40;0.43;;;;;;;-0.09;83.16;97904.69;5040370;28;20037;-78
2023/12/25 09:12:37;;;;;;;2.35;0.40;;;;;;;-0.13;83.69;97895.41;5044629;28;20049;-78
2023/12/25 09:15:05;;;;;;;0.57;0.40;;;;;;;-0.07;83.86;97904.69;5048443;28;20399;-78
2023/12/25 09:17:32;;;;;;;2.40;0.50;;;;;;;-0.08;83.79;97903.84;5042193;28;20510;-78
2023/12/25 09:20:00;;;;;;;0.82;0.30;;;;;;;-0.05;83.40;97903.75;5054276;28;20080;-79
2023/12/25 09:22:28;;;;;;;0.80;0.40;;;;;;;-0.04;83.13;97904.59;5050481;28;20090;-80
2023/12/25 09:24:55;;;;;;;0.60;0.40;;;;;;;-0.05;83.29;97898.63;5049382;28;20049;-78
2023/12/25 09:27:22;;;;;;;1.75;0.93;;;;;;;-0.03;83.73;97904.56;5052564;28;20579;-78
2023/12/25 09:29:49;;;;;;;2.67;0.52;;;;;;;-0.03;83.20;97899.44;5050085;28;20073;-78
2023/12/25 09:32:16;;;;;;;0.90;0.40;;;;;;;-0.01;83.48;97904.53;5051571;28;20096;-78
2023/12/25 09:34:43;;;;;;;2.67;0.70;;;;;;;-0.01;83.99;97904.53;5044689;28;20069;-78
2023/12/25 09:37:11;;;;;;;3.28;0.35;;;;;;;-0.04;83.68;97905.44;5044545;28;20137;-79
2023/12/25 09:39:38;;;;;;;0.82;0.40;;;;;;;0.01;83.84;97907.91;5048934;28;20515;-79
2023/12/25 09:42:06;;;;;;;0.95;0.40;;;;;;;0.01;83.21;97903.59;5051884;28;20084;-78
2023/12/25 09:44:33;;;;;;;0.45;0.30;;;;;;;0.02;83.56;97905.28;5040601;28;20045;-78
2023/12/25 09:47:00;;;;;;;2.05;0.45;;;;;;;0.02;83.97;97907.84;5048683;28;20128;-79
2023/12/25 09:49:29;;;;;;;0.95;0.43;;;;;;;0.04;83.47;97907.81;5049260;28;20761;-78
2023/12/25 09:51:58;;;;;;;1.40;0.50;;;;;;;0.05;83.40;97915.50;5049174;28;20088;-79
2023/12/25 09:54:26;;;;;;;1.30;0.40;;;;;;;0.05;83.49;97914.63;5045061;28;20102;-78
2023/12/25 09:56:55;;;;;;;3.05;0.50;;;;;;;0.06;83.70;97924.06;5050751;28;20077;-78
2023/12/25 09:59:22;;;;;;;3.38;0.70;;;;;;;0.02;83.01;97917.28;5048414;28;20091;-78
2023/12/25 10:01:50;;;;;;;5.45;2.35;;;;;;;0.07;83.54;97929.13;5044265;28;20072;-78
2023/12/25 10:04:18;;;;;;;3.45;0.80;;;;;;;0.07;83.24;97924.00;5053423;28;20136;-78
2023/12/25 10:06:45;;;;;;;1.38;0.50;;;;;;;0.07;83.71;97926.56;5044945;28;20060;-79
2023/12/25 10:09:13;;;;;;;2.88;0.50;;;;;;;0.08;83.56;97924.84;5051205;28;20084;-78
2023/12/25 10:11:41;;;;;;;2.35;0.77;;;;;;;0.05;83.08;97915.50;5046347;28;20399;-78
2023/12/25 10:14:08;;;;;;;1.63;0.30;;;;;;;0.09;83.74;97935.09;5057292;28;20052;-79
2023/12/25 10:16:35;;;;;;;1.23;0.40;;;;;;;0.02;83.44;97919.84;5047044;28;20072;-78
2023/12/25 10:19:02;;;;;;;1.98;0.50;;;;;;;0.10;83.48;97933.34;5047197;28;20479;-79
2023/12/25 10:21:42;;;;;;;0.73;0.40;;;;;;;0.10;83.46;97934.19;5039570;28;20124;-77
2023/12/25 10:24:12;;;;;;;3.13;0.60;;;;;;;0.12;83.81;97940.16;5039330;28;20088;-75
2023/12/25 10:26:41;;;;;;;1.05;0.40;;;;;;;0.10;83.33;97933.34;5041921;28;20045;-75
2023/12/25 10:29:09;;;;;;;3.90;0.32;;;;;;;0.12;83.45;97947.88;5038713;28;20046;-75
2023/12/25 10:31:38;;;;;;;0.82;0.52;;;;;;;0.14;83.37;97950.41;5041002;28;20037;-78
2023/12/25 10:34:05;;;;;;;1.33;0.30;;;;;;;0.15;83.64;97953.81;5046298;28;20057;-79
2023/12/25 10:36:32;;;;;;;1.55;0.60;;;;;;;0.17;83.73;97958.03;5047954;28;20083;-84
2023/12/25 10:38:59;;;;;;;3.05;0.80;;;;;;;0.15;83.80;97951.25;5044255;28;20053;-83
2023/12/25 10:41:30;;;;;;;1.55;0.82;;;;;;;0.19;83.43;97952.84;5048192;28;20418;-83
2023/12/25 10:43:59;;;;;;;2.22;0.70;;;;;;;0.19;83.91;97947.69;5047188;28;20083;-82
2023/12/25 10:46:29;;;;;;;5.03;1.13;;;;;;;0.22;83.37;97960.47;5048078;28;20084;-82
2023/12/25 10:48:57;;;;;;;2.13;0.50;;;;;;;0.23;83.81;97967.31;5045380;28;20045;-83
2023/12/25 10:51:30;;;;;;;2.40;0.50;;;;;;;0.14;83.51;97958.13;5044845;28;20495;-80
2023/12/25 10:54:01;;;;;;;4.50;0.50;;;;;;;0.25;84.15;97978.41;5044060;28;20537;-81
2023/12/25 10:56:28;;;;;;;2.80;0.40;;;;;;;0.25;83.57;97980.97;5046553;28;20128;-82
2023/12/25 10:59:04;;;;;;;2.22;0.40;;;;;;;0.26;83.50;97980.09;5044217;28;20052;-81
2023/12/25 11:01:31;;;;;;;1.25;0.50;;;;;;;0.25;84.04;97989.53;5046743;28;20045;-81
2023/12/25 11:03:59;;;;;;;0.95;0.40;;;;;;;0.29;83.46;97995.44;5045910;28;20497;-81
2023/12/25 11:06:27;;;;;;;0.80;0.40;;;;;;;0.28;83.46;97996.31;5046966;28;20072;-81
2023/12/25 11:08:54;;;;;;;0.80;0.50;;;;;;;0.30;83.49;98002.28;5042739;28;20542;-78
2023/12/25 11:11:23;;;;;;;2.78;0.60;;;;;;;0.31;84.09;98009.13;5044774;28;20064;-78
2023/12/25 11:13:50;;;;;;;1.42;0.65;;;;;;;0.32;83.58;98010.78;5042552;28;20491;-78
2023/12/25 11:16:19;;;;;;;1.25;0.65;;;;;;;0.32;84.00;98011.63;5047052;28;20847;-78
2023/12/25 11:18:46;;;;;;;1.98;0.32;;;;;;;0.34;84.00;98011.59;5044435;28;20072;-78
2023/12/25 11:21:18;;;;;;;2.22;0.65;;;;;;;0.33;83.79;98013.31;5045805;28;20044;-78
2023/12/25 11:23:48;;;;;;;0.57;0.45;;;;;;;0.36;83.65;98020.09;5046342;28;20057;-78
2023/12/25 11:26:16;;;;;;;3.25;0.35;;;;;;;0.38;83.85;98026.06;5043205;28;20049;-77
2023/12/25 11:28:55;;;;;;;0.82;0.30;;;;;;;0.38;83.26;98031.22;5045925;28;20049;-78
2023/12/25 11:31:24;;;;;;;1.20;0.30;;;;;;;0.39;83.63;98027.75;5040370;28;20128;-75
2023/12/25 11:33:51;;;;;;;1.75;0.30;;;;;;;0.40;83.52;98029.44;5041345;28;20148;-75
2023/12/25 11:36:18;;;;;;;2.75;0.30;;;;;;;0.43;83.77;98046.53;5040621;28;20059;-75
2023/12/25 11:38:46;;;;;;;0.77;0.77;;;;;;;0.40;83.49;98036.34;5037370;28;20056;-75